Aviation Digital Data Service (ADDS)

Output produced by METARs form (1541 UTC 24 August 2019)
found at http://www.aviationweather.gov/metar/data/
 
TAF EGLL 241053Z 2412/2518 11005KT CAVOK 
     BECMG 2413/2416 17010KT 
     BECMG 2422/2501 10004KT 7000 
     BECMG 2507/2510 16010KT CAVOK